Date,TemperatureHighF,TemperatureAvgF,TemperatureLowF,DewpointHighF,DewpointAvgF,DewpointLowF,HumidityHigh,HumidityAvg,HumidityLow,PressureMaxIn,PressureMinIn,WindSpeedMaxMPH,WindSpeedAvgMPH,GustSpeedMaxMPH,PrecipitationSumIn
2013-3-1,54.5,51.0,48.8,49.0,47.7,45.7,98,89,79,30.31,30.24,5,2,13,0.04
2013-3-2,52.9,46.4,35.0,46.7,42.3,32.9,92,86,73,30.23,30.01,4,1,10,0.38
2013-3-3,46.4,37.5,33.1,36.7,32.3,28.0,95,82,53,30.26,30.14,2,0,6,0.00
2013-3-4,52.3,39.7,31.2,31.5,26.2,19.0,84,61,34,30.25,29.87,3,1,7,0.00
2013-3-5,47.7,41.8,37.9,36.8,31.7,25.1,89,68,50,29.87,29.66,2,0,4,0.00
2013-3-6,40.5,38.7,36.9,38.6,36.6,34.8,95,92,89,29.84,29.52,3,1,10,0.46
2013-3-7,47.4,41.3,37.2,42.7,38.6,35.4,96,90,72,30.03,29.84,2,0,6,0.21
2013-3-8,51.0,39.4,32.8,40.4,35.5,31.0,95,86,65,30.19,30.02,2,0,6,0.00
2013-3-9,52.6,41.4,34.3,38.2,34.4,28.7,93,78,44,30.45,30.19,2,0,5,0.00
2013-3-10,42.9,40.5,38.0,39.6,36.3,32.6,91,85,77,30.44,30.38,2,0,4,0.02
2013-3-11,48.9,43.4,38.0,42.9,39.8,36.2,94,87,74,30.40,30.12,2,0,7,0.04
2013-3-12,48.9,47.7,45.1,46.3,45.4,42.9,93,92,89,30.12,30.02,4,3,12,0.00
2013-3-13,50.1,48.5,46.8,48.5,47.0,45.4,95,95,94,30.15,30.05,3,1,12,0.20
2013-3-14,48.6,48.5,48.2,47.2,47.1,46.8,95,95,95,30.05,30.03,1,0,3,0.00
2013-3-15,56.2,49.1,45.2,50.5,46.0,43.0,96,90,71,30.16,30.07,3,2,9,0.01
2013-3-16,46.1,42.5,37.2,43.0,39.0,33.5,93,87,75,30.07,29.83,4,2,12,0.08
2013-3-17,45.5,39.2,36.2,34.3,33.1,31.5,90,79,61,30.14,29.94,4,2,13,0.00
2013-3-18,50.4,40.8,36.3,38.7,33.9,28.2,92,78,45,30.19,30.06,5,2,13,0.00
2013-3-19,55.1,42.2,34.7,40.5,32.8,23.6,90,72,31,30.18,29.54,3,1,11,0.24
2013-3-20,47.1,42.9,36.3,45.5,39.4,31.0,94,87,75,29.97,29.34,6,3,22,0.42
2013-3-21,43.8,36.7,33.4,36.0,32.4,30.2,93,85,63,30.17,29.96,3,1,10,0.03
2013-3-22,42.6,35.1,31.6,34.5,30.3,27.0,94,83,59,30.34,30.17,2,1,5,0.07
2013-3-23,47.3,37.4,31.2,32.6,27.0,21.5,83,68,40,30.35,30.26,2,0,6,0.00
2013-3-24,52.8,40.9,31.6,33.1,28.4,23.8,86,63,34,30.26,30.08,2,0,7,0.00
2013-3-25,59.2,46.6,36.0,35.4,28.8,24.8,67,51,30,30.08,29.89,2,0,10,0.00
2013-3-26,46.5,45.7,44.5,34.7,33.6,32.7,65,62,60,29.91,29.90,0,0,0,0.00
2013-3-27,53.8,47.4,43.5,46.5,40.9,36.9,89,78,60,29.94,29.87,2,0,4,0.03
2013-3-28,57.6,48.9,43.5,47.9,43.3,40.5,93,82,59,30.10,29.93,2,0,6,0.03
2013-3-29,62.1,50.7,44.1,46.5,43.4,41.1,92,78,48,30.19,30.10,2,0,5,0.03
2013-3-30,66.8,51.4,40.8,45.3,42.1,38.7,92,73,42,30.20,30.02,3,1,7,0.00
2013-3-31,68.3,53.6,42.6,46.2,42.7,39.8,91,69,42,30.02,29.87,3,1,6,0.00